createdAt,value
2017-12-16T00:01:43.002Z,7.50
2017-12-16T00:04:10.442Z,4.70
2017-12-16T00:06:38.096Z,6.10
2017-12-16T00:09:05.546Z,5.63
2017-12-16T00:11:32.987Z,7.53
2017-12-16T00:14:00.515Z,5.70
2017-12-16T00:16:27.972Z,4.13
2017-12-16T00:18:55.429Z,4.30
2017-12-16T00:21:22.933Z,3.50
2017-12-16T00:23:50.379Z,3.53
2017-12-16T00:26:17.832Z,5.27
2017-12-16T00:28:45.354Z,4.10
2017-12-16T00:31:12.801Z,3.80
2017-12-16T00:33:40.264Z,4.97
2017-12-16T00:36:07.739Z,5.93
2017-12-16T00:38:35.173Z,7.37
2017-12-16T00:41:02.624Z,5.53
2017-12-16T00:43:30.113Z,8.13
2017-12-16T00:45:57.552Z,7.27
2017-12-16T00:48:25.005Z,13.10
2017-12-16T00:50:52.505Z,7.27
2017-12-16T00:53:19.958Z,5.90
2017-12-16T00:55:47.395Z,8.73
2017-12-16T00:58:14.896Z,6.60
2017-12-16T01:00:42.375Z,5.43
2017-12-16T01:03:09.816Z,2.80
2017-12-16T01:05:37.765Z,7.87
2017-12-16T01:08:05.208Z,8.70
2017-12-16T01:10:32.688Z,4.60
2017-12-16T01:13:00.209Z,4.23
2017-12-16T01:15:27.661Z,4.43
2017-12-16T01:17:55.103Z,3.87
2017-12-16T01:20:22.702Z,4.30
2017-12-16T01:22:50.151Z,2.27
2017-12-16T01:25:17.587Z,1.80
2017-12-16T01:27:45.068Z,4.57
2017-12-16T01:30:12.525Z,8.70
2017-12-16T01:32:39.967Z,6.67
2017-12-16T01:35:19.551Z,2.50
2017-12-16T01:37:58.694Z,6.37
2017-12-16T01:40:26.187Z,2.23
2017-12-16T01:42:53.639Z,4.10
2017-12-16T01:45:21.091Z,2.83
2017-12-16T01:47:48.555Z,2.63
2017-12-16T01:50:16.027Z,6.50
2017-12-16T01:52:43.483Z,1.63
2017-12-16T01:55:10.939Z,3.33
2017-12-16T01:57:38.421Z,2.50
2017-12-16T02:00:05.868Z,2.90
2017-12-16T02:02:33.311Z,4.20
2017-12-16T02:05:00.791Z,3.10
2017-12-16T02:07:28.239Z,6.67
2017-12-16T02:09:55.688Z,3.07
2017-12-16T02:12:23.291Z,8.83
2017-12-16T02:14:50.735Z,1.10
2017-12-16T02:17:18.175Z,3.37
2017-12-16T02:19:45.666Z,2.30
2017-12-16T02:22:13.107Z,3.80
2017-12-16T02:24:40.575Z,3.70
2017-12-16T02:27:08.023Z,1.20
2017-12-16T02:29:35.460Z,1.27
2017-12-16T02:32:03.073Z,1.57
2017-12-16T02:34:30.524Z,5.97
2017-12-16T02:36:57.971Z,1.40
2017-12-16T02:39:25.435Z,2.73
2017-12-16T02:41:52.904Z,1.00
2017-12-16T02:44:20.593Z,4.23
2017-12-16T02:46:48.037Z,3.93
2017-12-16T02:49:15.484Z,4.67
2017-12-16T02:51:42.948Z,2.43
2017-12-16T02:54:10.389Z,5.90
2017-12-16T02:56:37.878Z,2.77
2017-12-16T02:59:05.319Z,0.90
2017-12-16T03:01:32.772Z,6.27
2017-12-16T03:04:01.138Z,3.60
2017-12-16T03:06:28.589Z,6.07
2017-12-16T03:08:56.042Z,6.03
2017-12-16T03:11:23.519Z,2.80
2017-12-16T03:13:51.011Z,1.50
2017-12-16T03:16:18.460Z,3.47
2017-12-16T03:18:46.017Z,1.70
2017-12-16T03:21:13.467Z,3.10
2017-12-16T03:23:40.916Z,1.60
2017-12-16T03:26:08.408Z,2.23
2017-12-16T03:28:35.857Z,2.80
2017-12-16T03:31:03.309Z,3.47
2017-12-16T03:33:30.787Z,2.87
2017-12-16T03:35:58.231Z,2.50
2017-12-16T03:38:25.687Z,2.27
2017-12-16T03:40:53.178Z,3.37
2017-12-16T03:43:20.630Z,2.80
2017-12-16T03:45:48.099Z,2.47
2017-12-16T03:48:15.590Z,3.37
2017-12-16T03:50:43.043Z,2.40
2017-12-16T03:53:10.501Z,2.40
2017-12-16T03:55:37.983Z,4.70
2017-12-16T03:58:05.430Z,1.47
2017-12-16T04:00:32.872Z,5.00
2017-12-16T04:03:00.382Z,1.43
2017-12-16T04:05:27.833Z,1.43
2017-12-16T04:07:55.294Z,3.97
2017-12-16T04:10:22.764Z,2.03
2017-12-16T04:12:50.200Z,1.40
2017-12-16T04:15:17.680Z,2.50
2017-12-16T04:17:45.115Z,3.43
2017-12-16T04:20:12.567Z,2.13
2017-12-16T04:22:40.064Z,1.33
2017-12-16T04:25:07.517Z,1.90
2017-12-16T04:27:34.967Z,1.50
2017-12-16T04:30:02.582Z,5.83
2017-12-16T04:32:30.031Z,2.97
2017-12-16T04:34:57.486Z,4.10
2017-12-16T04:37:25.124Z,6.03
2017-12-16T04:39:52.568Z,2.93
2017-12-16T04:42:20.107Z,3.40
2017-12-16T04:44:47.575Z,1.40
2017-12-16T04:47:15.036Z,3.30
2017-12-16T04:49:42.535Z,1.57
2017-12-16T04:52:09.994Z,2.80
2017-12-16T04:54:37.449Z,2.83
2017-12-16T04:57:04.962Z,3.93
2017-12-16T04:59:32.442Z,8.43
2017-12-16T05:01:59.904Z,3.93
2017-12-16T05:04:27.392Z,1.37
2017-12-16T05:06:54.837Z,8.13
2017-12-16T05:09:22.287Z,1.97
2017-12-16T05:11:49.793Z,7.27
2017-12-16T05:14:17.280Z,3.30
2017-12-16T05:16:44.771Z,2.33
2017-12-16T05:19:12.259Z,2.97
2017-12-16T05:21:39.699Z,1.80
2017-12-16T05:24:07.335Z,2.73
2017-12-16T05:26:34.789Z,2.70
2017-12-16T05:29:02.243Z,5.07
2017-12-16T05:31:29.703Z,2.33
2017-12-16T05:33:57.199Z,3.23
2017-12-16T05:36:24.680Z,2.10
2017-12-16T05:38:52.124Z,3.50
2017-12-16T05:41:19.567Z,6.10
2017-12-16T05:43:47.039Z,7.53
2017-12-16T05:46:14.476Z,4.93
2017-12-16T05:48:41.927Z,2.43
2017-12-16T05:51:09.427Z,2.40
2017-12-16T05:53:36.876Z,4.07
2017-12-16T05:56:04.324Z,1.60
2017-12-16T05:58:31.783Z,5.17
2017-12-16T06:00:59.220Z,6.47
2017-12-16T06:03:26.707Z,3.03
2017-12-16T06:05:54.154Z,1.67
2017-12-16T06:08:21.595Z,1.93
2017-12-16T06:10:49.184Z,4.60
2017-12-16T06:13:16.638Z,3.37
2017-12-16T06:15:44.109Z,3.57
2017-12-16T06:18:11.579Z,4.80
2017-12-16T06:20:39.029Z,2.50
2017-12-16T06:23:06.473Z,5.80
2017-12-16T06:25:33.955Z,3.93
2017-12-16T06:28:01.403Z,12.60
2017-12-16T06:30:28.847Z,3.80
2017-12-16T06:32:56.340Z,7.63
2017-12-16T06:35:23.785Z,2.33
2017-12-16T06:37:51.223Z,1.43
2017-12-16T06:40:18.706Z,4.17
2017-12-16T06:42:46.162Z,5.87
2017-12-16T06:45:13.755Z,2.50
2017-12-16T06:47:41.256Z,3.90
2017-12-16T06:52:42.704Z,2.43
2017-12-16T06:55:10.161Z,3.97
2017-12-16T06:57:37.608Z,3.63
2017-12-16T07:00:05.064Z,5.87
2017-12-16T07:02:32.508Z,4.47
2017-12-16T07:05:00.011Z,3.47
2017-12-16T07:07:27.466Z,8.70
2017-12-16T07:09:54.901Z,3.67
2017-12-16T07:12:22.547Z,12.43
2017-12-16T07:14:49.999Z,2.53
2017-12-16T07:17:17.472Z,10.57
2017-12-16T07:19:44.939Z,5.70
2017-12-16T07:22:12.395Z,9.40
2017-12-16T07:24:39.855Z,2.83
2017-12-16T07:27:07.344Z,2.77
2017-12-16T07:29:34.792Z,5.03
2017-12-16T07:32:02.240Z,5.57
2017-12-16T07:34:29.869Z,4.00
2017-12-16T07:36:57.343Z,2.43
2017-12-16T07:39:24.776Z,7.13
2017-12-16T07:41:52.243Z,3.40
2017-12-16T07:44:19.700Z,9.13
2017-12-16T07:46:47.147Z,14.20
2017-12-16T07:49:14.616Z,4.33
2017-12-16T07:51:42.071Z,6.03
2017-12-16T07:54:09.515Z,4.87
2017-12-16T07:56:37.031Z,14.70
2017-12-16T07:59:04.475Z,3.80
2017-12-16T08:01:31.939Z,3.93
2017-12-16T08:03:59.641Z,4.43
2017-12-16T08:06:27.093Z,3.07
2017-12-16T08:08:54.562Z,5.20
2017-12-16T08:11:22.150Z,4.77
2017-12-16T08:13:49.590Z,4.50
2017-12-16T08:16:17.041Z,10.73
2017-12-16T08:18:44.522Z,3.03
2017-12-16T08:21:11.963Z,5.60
2017-12-16T08:23:39.411Z,5.00
2017-12-16T08:26:06.895Z,4.77
2017-12-16T08:28:34.367Z,5.00
2017-12-16T08:31:01.814Z,8.63
2017-12-16T08:33:29.292Z,4.17
2017-12-16T08:35:56.749Z,5.43
2017-12-16T08:38:24.208Z,9.10
2017-12-16T08:40:51.892Z,4.40
2017-12-16T08:43:19.373Z,3.90
2017-12-16T08:45:46.837Z,5.50
2017-12-16T08:48:14.331Z,7.33
2017-12-16T08:50:41.787Z,5.33
2017-12-16T08:53:09.238Z,6.20
2017-12-16T08:55:36.713Z,10.57
2017-12-16T08:58:04.152Z,5.73
2017-12-16T09:00:31.607Z,9.80
2017-12-16T09:02:59.090Z,9.20
2017-12-16T09:05:26.540Z,5.43
2017-12-16T09:07:54.042Z,4.70
2017-12-16T09:10:21.488Z,3.93
2017-12-16T09:12:48.944Z,8.20
2017-12-16T09:15:16.510Z,8.27
2017-12-16T09:17:43.960Z,7.83
2017-12-16T09:20:11.424Z,7.73
2017-12-16T09:22:38.901Z,5.67
2017-12-16T09:25:06.369Z,11.90
2017-12-16T09:27:33.898Z,7.22
2017-12-16T09:30:01.369Z,8.17
2017-12-16T09:32:28.851Z,5.63
2017-12-16T09:34:56.309Z,3.80
2017-12-16T09:37:23.756Z,4.73
2017-12-16T09:39:51.235Z,6.83
2017-12-16T09:42:18.690Z,9.10
2017-12-16T09:44:46.156Z,5.67
2017-12-16T09:47:13.655Z,10.13
2017-12-16T09:49:41.116Z,5.73
2017-12-16T09:52:08.581Z,5.70
2017-12-16T09:54:36.056Z,5.43
2017-12-16T09:57:03.508Z,6.80
2017-12-16T09:59:30.991Z,8.07
2017-12-16T10:01:58.439Z,7.93
2017-12-16T10:04:25.892Z,6.23
2017-12-16T10:06:53.535Z,15.60
2017-12-16T10:09:20.992Z,7.43
2017-12-16T10:11:48.446Z,9.13
2017-12-16T10:14:16.811Z,13.47
2017-12-16T10:16:44.262Z,10.17
2017-12-16T10:19:11.715Z,8.87
2017-12-16T10:21:39.242Z,8.33
2017-12-16T10:24:06.694Z,16.93
2017-12-16T10:26:34.218Z,8.20
2017-12-16T10:29:01.672Z,8.07
2017-12-16T10:31:29.126Z,7.20
2017-12-16T10:33:56.729Z,6.03
2017-12-16T10:36:24.179Z,7.20
2017-12-16T10:38:51.696Z,5.87
2017-12-16T10:41:19.302Z,7.83
2017-12-16T10:43:46.744Z,9.63
2017-12-16T10:46:14.191Z,12.10
2017-12-16T10:48:41.866Z,8.83
2017-12-16T10:51:09.306Z,8.53
2017-12-16T10:53:36.760Z,12.43
2017-12-16T10:56:04.547Z,7.43
2017-12-16T10:58:32.171Z,8.07
2017-12-16T11:00:59.612Z,9.40
2017-12-16T11:03:27.090Z,6.70
2017-12-16T11:05:54.539Z,7.00
2017-12-16T11:08:22.029Z,5.97
2017-12-16T11:10:49.484Z,7.43
2017-12-16T11:13:16.941Z,6.10
2017-12-16T11:15:44.430Z,7.37
2017-12-16T11:18:11.881Z,6.07
2017-12-16T11:20:39.338Z,9.20
2017-12-16T11:23:06.821Z,7.93
2017-12-16T11:25:34.273Z,7.03
2017-12-16T11:28:01.732Z,8.67
2017-12-16T11:30:29.398Z,8.57
2017-12-16T11:32:56.850Z,6.33
2017-12-16T11:35:24.299Z,7.87
2017-12-16T11:37:52.894Z,5.93
2017-12-16T11:40:20.350Z,6.93
2017-12-16T11:42:47.804Z,7.80
2017-12-16T11:45:15.416Z,11.87
2017-12-16T11:47:42.891Z,10.97
2017-12-16T11:50:10.335Z,6.33
2017-12-16T11:52:37.941Z,7.67
2017-12-16T11:55:05.393Z,9.67
2017-12-16T11:57:32.848Z,5.17
2017-12-16T12:00:00.336Z,4.80
2017-12-16T12:02:27.827Z,5.97
2017-12-16T12:04:55.284Z,5.97
2017-12-16T12:07:22.773Z,4.83
2017-12-16T12:09:50.229Z,7.40
2017-12-16T12:12:17.692Z,5.10
2017-12-16T12:14:45.259Z,6.00
2017-12-16T12:17:12.711Z,13.33
2017-12-16T12:19:40.171Z,6.90
2017-12-16T12:22:07.664Z,6.90
2017-12-16T12:24:35.107Z,4.57
2017-12-16T12:27:02.556Z,5.60
2017-12-16T12:29:30.052Z,4.70
2017-12-16T12:31:57.503Z,6.30
2017-12-16T12:34:24.949Z,6.33
2017-12-16T12:36:52.640Z,5.17
2017-12-16T12:39:20.096Z,5.07
2017-12-16T12:41:47.556Z,4.70
2017-12-16T12:44:15.028Z,5.37
2017-12-16T12:46:42.485Z,5.00
2017-12-16T12:49:09.988Z,5.73
2017-12-16T12:51:37.426Z,4.80
2017-12-16T12:54:04.897Z,5.10
2017-12-16T12:56:32.361Z,4.30
2017-12-16T12:58:59.811Z,4.73
2017-12-16T13:01:27.295Z,3.90
2017-12-16T13:03:54.739Z,3.20
2017-12-16T13:06:22.187Z,5.53
2017-12-16T13:08:49.669Z,4.53
2017-12-16T13:11:17.111Z,4.13
2017-12-16T13:13:44.553Z,7.33
2017-12-16T13:16:12.005Z,3.90
2017-12-16T13:18:39.459Z,3.63
2017-12-16T13:21:06.983Z,9.47
2017-12-16T13:23:34.451Z,6.57
2017-12-16T13:26:01.897Z,3.37
2017-12-16T13:28:29.391Z,3.73
2017-12-16T13:30:56.863Z,4.27
2017-12-16T13:33:24.315Z,3.50
2017-12-16T13:35:51.798Z,3.60
2017-12-16T13:38:19.250Z,3.33
2017-12-16T13:40:46.696Z,3.70
2017-12-16T13:43:14.163Z,4.50
2017-12-16T13:45:41.608Z,3.67
2017-12-16T13:48:09.099Z,3.50
2017-12-16T13:50:36.543Z,3.90
2017-12-16T13:53:03.983Z,5.13
2017-12-16T13:55:31.633Z,4.13
2017-12-16T13:57:59.076Z,5.80
2017-12-16T14:00:26.515Z,5.67
2017-12-16T14:02:53.977Z,6.20
2017-12-16T14:05:21.432Z,7.00
2017-12-16T14:07:48.918Z,7.47
2017-12-16T14:10:16.358Z,8.50
2017-12-16T14:12:43.817Z,9.33
2017-12-16T14:15:11.396Z,8.00
2017-12-16T14:17:38.840Z,9.30
2017-12-16T14:20:06.294Z,12.23
2017-12-16T14:22:33.800Z,10.33
2017-12-16T14:25:01.257Z,8.70
2017-12-16T14:27:28.713Z,8.23
2017-12-16T14:29:56.178Z,10.80
2017-12-16T14:32:23.632Z,7.10
2017-12-16T14:34:51.091Z,11.10
2017-12-16T14:37:18.544Z,14.13
2017-12-16T14:39:46.082Z,9.67
2017-12-16T14:42:13.527Z,11.00
2017-12-16T14:44:41.007Z,11.17
2017-12-16T14:47:08.463Z,7.90
2017-12-16T14:49:35.911Z,10.10
2017-12-16T14:52:03.372Z,11.93
2017-12-16T14:54:30.824Z,19.70
2017-12-16T14:56:58.302Z,16.37
2017-12-16T14:59:25.753Z,14.87
2017-12-16T15:01:53.196Z,15.40
2017-12-16T15:04:20.679Z,17.70
2017-12-16T15:06:48.127Z,14.50
2017-12-16T15:09:15.592Z,14.97
2017-12-16T15:11:43.067Z,13.90
2017-12-16T15:14:10.526Z,13.67
2017-12-16T15:16:37.981Z,14.13
2017-12-16T15:19:05.487Z,18.67
2017-12-16T15:21:32.952Z,17.60
2017-12-16T15:24:00.408Z,15.80
2017-12-16T15:26:28.097Z,17.50
2017-12-16T15:28:55.545Z,18.63
2017-12-16T15:31:22.990Z,19.20
2017-12-16T15:33:50.580Z,19.70
2017-12-16T15:36:18.034Z,20.67
2017-12-16T15:38:45.490Z,20.80
2017-12-16T15:41:12.971Z,24.37
2017-12-16T15:43:40.449Z,19.43
2017-12-16T15:46:07.911Z,19.17
2017-12-16T15:48:35.413Z,18.10
2017-12-16T15:51:02.875Z,23.50
2017-12-16T15:53:30.327Z,18.23
2017-12-16T15:55:57.931Z,18.87
2017-12-16T15:58:25.391Z,22.60
2017-12-16T16:00:52.836Z,21.20
2017-12-16T16:03:20.323Z,20.03
2017-12-16T16:05:47.784Z,22.60
2017-12-16T16:08:15.240Z,19.97
2017-12-16T16:10:42.707Z,22.93
2017-12-16T16:13:10.160Z,22.40
2017-12-16T16:15:37.632Z,25.07
2017-12-16T16:18:05.089Z,28.60
2017-12-16T16:20:32.591Z,26.87
2017-12-16T16:23:00.053Z,22.50
2017-12-16T16:25:27.514Z,24.20
2017-12-16T16:27:54.989Z,19.47
2017-12-16T16:30:22.436Z,23.30
2017-12-16T16:32:49.907Z,20.57
2017-12-16T16:35:17.360Z,20.90
2017-12-16T16:37:44.856Z,18.03
2017-12-16T16:40:12.319Z,29.50
2017-12-16T16:42:39.783Z,22.47
2017-12-16T16:45:07.258Z,27.43
2017-12-16T16:47:34.711Z,19.80
2017-12-16T16:50:02.187Z,22.80
2017-12-16T16:52:29.642Z,19.80
2017-12-16T16:54:57.123Z,20.33
2017-12-16T16:57:24.612Z,19.60
2017-12-16T16:59:52.121Z,22.27
2017-12-16T17:02:19.580Z,17.30
2017-12-16T17:04:47.041Z,17.63
2017-12-16T17:07:14.503Z,17.23
2017-12-16T17:09:41.961Z,19.93
2017-12-16T17:12:09.477Z,20.50
2017-12-16T17:14:36.981Z,16.93
2017-12-16T17:17:04.443Z,17.80
2017-12-16T17:19:31.895Z,18.53
2017-12-16T17:21:59.357Z,17.53
2017-12-16T17:24:26.809Z,16.90
2017-12-16T17:26:54.279Z,19.00
2017-12-16T17:29:21.727Z,19.17
2017-12-16T17:31:49.313Z,21.77
2017-12-16T17:34:16.778Z,20.13
2017-12-16T17:36:44.240Z,20.53
2017-12-16T17:39:11.728Z,22.00
2017-12-16T17:41:39.191Z,19.17
2017-12-16T17:44:06.658Z,17.40
2017-12-16T17:46:34.108Z,20.23
2017-12-16T17:49:01.603Z,21.80
2017-12-16T17:51:29.064Z,21.87
2017-12-16T17:53:56.534Z,22.93
2017-12-16T17:56:24.016Z,24.37
2017-12-16T17:58:51.495Z,21.53
2017-12-16T18:01:18.987Z,24.20
2017-12-16T18:03:46.440Z,20.53
2017-12-16T18:06:13.910Z,22.80
2017-12-16T18:08:41.406Z,20.27
2017-12-16T18:11:08.856Z,24.87
2017-12-16T18:13:36.384Z,20.63
2017-12-16T18:16:03.873Z,24.07
2017-12-16T18:18:31.373Z,25.10
2017-12-16T18:20:58.844Z,28.73
2017-12-16T18:23:26.393Z,21.47
2017-12-16T18:25:53.977Z,24.13
2017-12-16T18:28:21.544Z,18.00
2017-12-16T18:30:49.008Z,23.40
2017-12-16T18:33:16.487Z,29.33
2017-12-16T18:35:43.959Z,25.63
2017-12-16T18:38:11.604Z,27.70
2017-12-16T18:40:39.088Z,33.43
2017-12-16T18:43:06.539Z,24.13
2017-12-16T18:45:34.044Z,30.17
2017-12-16T18:48:01.516Z,23.67
2017-12-16T18:50:29.009Z,26.53
2017-12-16T18:52:56.466Z,23.90
2017-12-16T18:55:23.925Z,26.03
2017-12-16T18:57:51.392Z,27.87
2017-12-16T19:00:18.863Z,26.87
2017-12-16T19:02:46.378Z,28.37
2017-12-16T19:05:13.828Z,32.53
2017-12-16T19:07:41.275Z,31.90
2017-12-16T19:10:08.782Z,29.97
2017-12-16T19:12:36.237Z,32.13
2017-12-16T19:15:03.691Z,28.57
2017-12-16T19:17:31.194Z,35.50
2017-12-16T19:19:58.656Z,30.43
2017-12-16T19:22:26.127Z,28.83
2017-12-16T19:24:53.631Z,30.20
2017-12-16T19:27:21.083Z,33.57
2017-12-16T19:29:48.549Z,30.70
2017-12-16T19:32:16.232Z,40.17
2017-12-16T19:34:43.696Z,32.80
2017-12-16T19:37:11.152Z,30.93
2017-12-16T19:39:38.661Z,34.50
2017-12-16T19:42:06.119Z,40.87
2017-12-16T19:44:33.610Z,48.50
2017-12-16T19:47:01.115Z,31.20
2017-12-16T19:49:28.565Z,31.50
2017-12-16T19:51:56.040Z,29.73
2017-12-16T19:54:23.511Z,28.90
2017-12-16T19:56:50.968Z,33.90
2017-12-16T19:59:18.466Z,30.97
2017-12-16T20:01:45.952Z,33.47
2017-12-16T20:04:13.407Z,36.90
2017-12-16T20:06:41.028Z,33.13
2017-12-16T20:09:08.484Z,32.10
2017-12-16T20:11:35.943Z,36.40
2017-12-16T20:14:03.472Z,31.70
2017-12-16T20:16:30.935Z,28.50
2017-12-16T20:18:58.408Z,32.10
2017-12-16T20:21:25.863Z,32.93
2017-12-16T20:23:53.363Z,27.43
2017-12-16T20:26:20.819Z,29.73
2017-12-16T20:28:48.279Z,34.83
2017-12-16T20:31:15.828Z,27.03
2017-12-16T20:33:43.289Z,38.63
2017-12-16T20:36:10.799Z,27.50
2017-12-16T20:38:38.256Z,31.53
2017-12-16T20:41:05.710Z,35.50
2017-12-16T20:43:33.210Z,29.10
2017-12-16T20:46:00.671Z,36.47
2017-12-16T20:48:28.176Z,37.03
2017-12-16T20:50:55.661Z,33.97
2017-12-16T20:53:23.110Z,33.50
2017-12-16T20:55:50.593Z,30.43
2017-12-16T20:58:18.057Z,32.00
2017-12-16T21:00:45.540Z,29.13
2017-12-16T21:03:12.991Z,28.73
2017-12-16T21:05:40.472Z,29.23
2017-12-16T21:08:07.934Z,31.20
2017-12-16T21:10:35.439Z,35.17
2017-12-16T21:13:02.902Z,35.87
2017-12-16T21:15:30.358Z,32.70
2017-12-16T21:17:57.835Z,29.23
2017-12-16T21:20:25.301Z,26.83
2017-12-16T21:22:52.780Z,31.30
2017-12-16T21:25:20.249Z,26.17
2017-12-16T21:27:47.737Z,34.40
2017-12-16T21:30:15.183Z,32.87
2017-12-16T21:32:42.667Z,30.50
2017-12-16T21:35:10.155Z,28.40
2017-12-16T21:37:37.666Z,33.03
2017-12-16T21:40:05.094Z,24.10
2017-12-16T21:42:32.722Z,26.70
2017-12-16T21:45:00.180Z,25.43
2017-12-16T21:47:27.640Z,26.73
2017-12-16T21:49:55.103Z,24.60
2017-12-16T21:52:22.547Z,26.57
2017-12-16T21:54:50.028Z,32.60
2017-12-16T21:57:17.488Z,25.73
2017-12-16T21:59:44.951Z,30.80
2017-12-16T22:02:12.427Z,28.57
2017-12-16T22:04:39.909Z,26.40
2017-12-16T22:07:07.578Z,32.17
2017-12-16T22:09:35.041Z,28.00
2017-12-16T22:12:02.495Z,26.87
2017-12-16T22:14:29.968Z,30.20
2017-12-16T22:16:57.424Z,28.93
2017-12-16T22:19:24.952Z,28.57
2017-12-16T22:21:52.438Z,27.60
2017-12-16T22:24:19.902Z,24.53
2017-12-16T22:26:47.364Z,29.23
2017-12-16T22:29:14.821Z,30.10
2017-12-16T22:31:42.421Z,29.27
2017-12-16T22:34:09.873Z,30.80
2017-12-16T22:36:37.338Z,27.57
2017-12-16T22:39:04.812Z,27.13
2017-12-16T22:41:32.267Z,28.10
2017-12-16T22:43:59.752Z,30.00
2017-12-16T22:46:27.240Z,25.93
2017-12-16T22:48:54.782Z,27.07
2017-12-16T22:51:22.257Z,26.63
2017-12-16T22:53:49.715Z,28.70
2017-12-16T22:56:17.270Z,31.43
2017-12-16T22:58:44.734Z,32.90
2017-12-16T23:01:12.252Z,27.73
2017-12-16T23:03:39.734Z,24.20
2017-12-16T23:06:07.218Z,28.03
2017-12-16T23:08:34.847Z,29.53
2017-12-16T23:11:02.320Z,26.97
2017-12-16T23:13:29.796Z,29.10
2017-12-16T23:15:57.288Z,21.90
2017-12-16T23:18:24.776Z,23.70
2017-12-16T23:20:52.246Z,28.53
2017-12-16T23:23:19.723Z,27.90
2017-12-16T23:25:47.217Z,25.60
2017-12-16T23:28:14.670Z,23.97
2017-12-16T23:30:42.155Z,31.43
2017-12-16T23:33:09.607Z,31.40
2017-12-16T23:35:37.220Z,26.80
2017-12-16T23:38:04.695Z,23.40
2017-12-16T23:40:32.207Z,20.90
2017-12-16T23:42:59.671Z,24.27
2017-12-16T23:45:27.131Z,24.97
2017-12-16T23:47:54.756Z,19.77
2017-12-16T23:50:22.211Z,25.33
2017-12-16T23:52:49.668Z,24.77
2017-12-16T23:55:17.151Z,22.10
2017-12-16T23:57:44.624Z,24.40
